sensor_id;sensor_type;location;lat;lon;timestamp;P1;durP1;ratioP1;P2;durP2;ratioP2
78116;SDS011;69042;59.120;37.904;2024-03-08T00:02:37;102.38;;;33.60;;
78116;SDS011;69042;59.120;37.904;2024-03-08T00:05:05;180.85;;;61.08;;
78116;SDS011;69042;59.120;37.904;2024-03-08T00:07:32;87.60;;;31.88;;
78116;SDS011;69042;59.120;37.904;2024-03-08T00:09:58;95.82;;;39.40;;
78116;SDS011;69042;59.120;37.904;2024-03-08T00:12:24;152.25;;;53.22;;
78116;SDS011;69042;59.120;37.904;2024-03-08T00:14:53;91.55;;;36.03;;
78116;SDS011;69042;59.120;37.904;2024-03-08T00:17:20;106.32;;;38.50;;
78116;SDS011;69042;59.120;37.904;2024-03-08T00:19:50;132.88;;;44.60;;
78116;SDS011;69042;59.120;37.904;2024-03-08T00:22:17;119.35;;;44.42;;
78116;SDS011;69042;59.120;37.904;2024-03-08T00:24:43;88.05;;;34.15;;
78116;SDS011;69042;59.120;37.904;2024-03-08T00:27:12;140.90;;;49.90;;
78116;SDS011;69042;59.120;37.904;2024-03-08T00:29:39;111.63;;;35.10;;
78116;SDS011;69042;59.120;37.904;2024-03-08T00:32:05;131.30;;;38.92;;
78116;SDS011;69042;59.120;37.904;2024-03-08T00:34:36;149.60;;;41.30;;
78116;SDS011;69042;59.120;37.904;2024-03-08T00:37:03;143.90;;;43.97;;
78116;SDS011;69042;59.120;37.904;2024-03-08T00:39:30;117.95;;;39.05;;
78116;SDS011;69042;59.120;37.904;2024-03-08T00:41:56;149.20;;;48.97;;
78116;SDS011;69042;59.120;37.904;2024-03-08T00:44:22;169.77;;;49.20;;
78116;SDS011;69042;59.120;37.904;2024-03-08T00:46:50;121.03;;;39.08;;
78116;SDS011;69042;59.120;37.904;2024-03-08T00:49:17;102.80;;;32.08;;
78116;SDS011;69042;59.120;37.904;2024-03-08T00:51:43;125.43;;;40.97;;
78116;SDS011;69042;59.120;37.904;2024-03-08T00:54:09;138.55;;;47.83;;
78116;SDS011;69042;59.120;37.904;2024-03-08T00:56:35;110.90;;;37.13;;
78116;SDS011;69042;59.120;37.904;2024-03-08T00:59:04;106.82;;;31.92;;
78116;SDS011;69042;59.120;37.904;2024-03-08T01:01:32;165.10;;;44.05;;
78116;SDS011;69042;59.120;37.904;2024-03-08T01:03:59;162.43;;;43.88;;
78116;SDS011;69042;59.120;37.904;2024-03-08T01:06:25;102.55;;;29.50;;
78116;SDS011;69042;59.120;37.904;2024-03-08T01:08:52;123.32;;;32.20;;
78116;SDS011;69042;59.120;37.904;2024-03-08T01:11:19;108.80;;;29.98;;
78116;SDS011;69042;59.120;37.904;2024-03-08T01:13:45;112.78;;;38.33;;
78116;SDS011;69042;59.120;37.904;2024-03-08T01:16:13;124.20;;;35.25;;
78116;SDS011;69042;59.120;37.904;2024-03-08T01:18:39;107.18;;;32.28;;
78116;SDS011;69042;59.120;37.904;2024-03-08T01:21:05;94.65;;;25.00;;
78116;SDS011;69042;59.120;37.904;2024-03-08T01:23:32;139.13;;;37.20;;
78116;SDS011;69042;59.120;37.904;2024-03-08T01:25:58;112.00;;;32.38;;
78116;SDS011;69042;59.120;37.904;2024-03-08T01:28:25;81.07;;;23.60;;
78116;SDS011;69042;59.120;37.904;2024-03-08T01:30:52;119.32;;;33.28;;
78116;SDS011;69042;59.120;37.904;2024-03-08T01:35:54;107.28;;;34.88;;
78116;SDS011;69042;59.120;37.904;2024-03-08T01:38:20;77.60;;;22.95;;
78116;SDS011;69042;59.120;37.904;2024-03-08T01:40:49;132.32;;;36.78;;
78116;SDS011;69042;59.120;37.904;2024-03-08T01:43:20;92.72;;;28.63;;
78116;SDS011;69042;59.120;37.904;2024-03-08T01:45:48;110.30;;;30.38;;
78116;SDS011;69042;59.120;37.904;2024-03-08T01:48:15;111.75;;;31.38;;
78116;SDS011;69042;59.120;37.904;2024-03-08T01:50:44;105.55;;;30.23;;
78116;SDS011;69042;59.120;37.904;2024-03-08T01:53:11;105.18;;;26.95;;
78116;SDS011;69042;59.120;37.904;2024-03-08T01:55:41;115.18;;;32.35;;
78116;SDS011;69042;59.120;37.904;2024-03-08T01:58:09;63.03;;;19.40;;
78116;SDS011;69042;59.120;37.904;2024-03-08T02:00:38;79.38;;;23.95;;
78116;SDS011;69042;59.120;37.904;2024-03-08T02:03:06;95.95;;;28.90;;
78116;SDS011;69042;59.120;37.904;2024-03-08T02:05:32;83.15;;;24.98;;
78116;SDS011;69042;59.120;37.904;2024-03-08T02:07:59;131.43;;;33.03;;
78116;SDS011;69042;59.120;37.904;2024-03-08T02:10:26;78.97;;;23.20;;
78116;SDS011;69042;59.120;37.904;2024-03-08T02:12:52;71.57;;;25.92;;
78116;SDS011;69042;59.120;37.904;2024-03-08T02:15:18;50.95;;;17.77;;
78116;SDS011;69042;59.120;37.904;2024-03-08T02:17:45;66.53;;;21.58;;
78116;SDS011;69042;59.120;37.904;2024-03-08T02:20:11;98.78;;;25.15;;
78116;SDS011;69042;59.120;37.904;2024-03-08T02:22:38;102.10;;;28.15;;
78116;SDS011;69042;59.120;37.904;2024-03-08T02:25:05;105.93;;;30.83;;
78116;SDS011;69042;59.120;37.904;2024-03-08T02:27:32;132.43;;;38.70;;
78116;SDS011;69042;59.120;37.904;2024-03-08T02:29:58;101.50;;;27.85;;
78116;SDS011;69042;59.120;37.904;2024-03-08T02:32:25;119.00;;;32.67;;
78116;SDS011;69042;59.120;37.904;2024-03-08T02:34:55;70.85;;;22.17;;
78116;SDS011;69042;59.120;37.904;2024-03-08T02:37:25;82.50;;;23.60;;
78116;SDS011;69042;59.120;37.904;2024-03-08T02:39:52;32.97;;;14.57;;
78116;SDS011;69042;59.120;37.904;2024-03-08T02:42:18;34.13;;;11.98;;
78116;SDS011;69042;59.120;37.904;2024-03-08T02:44:44;28.67;;;10.27;;
78116;SDS011;69042;59.120;37.904;2024-03-08T02:47:10;22.33;;;9.23;;
78116;SDS011;69042;59.120;37.904;2024-03-08T02:49:36;23.05;;;7.88;;
78116;SDS011;69042;59.120;37.904;2024-03-08T02:52:03;27.13;;;8.85;;
78116;SDS011;69042;59.120;37.904;2024-03-08T02:54:30;19.63;;;7.68;;
78116;SDS011;69042;59.120;37.904;2024-03-08T02:56:56;33.20;;;10.82;;
78116;SDS011;69042;59.120;37.904;2024-03-08T02:59:22;32.28;;;12.10;;
78116;SDS011;69042;59.120;37.904;2024-03-08T03:01:49;26.50;;;11.45;;
78116;SDS011;69042;59.120;37.904;2024-03-08T03:04:16;25.88;;;9.93;;
78116;SDS011;69042;59.120;37.904;2024-03-08T03:06:42;38.05;;;14.02;;
78116;SDS011;69042;59.120;37.904;2024-03-08T03:09:09;27.55;;;10.65;;
78116;SDS011;69042;59.120;37.904;2024-03-08T03:11:36;29.02;;;9.02;;
78116;SDS011;69042;59.120;37.904;2024-03-08T03:14:03;25.52;;;11.27;;
78116;SDS011;69042;59.120;37.904;2024-03-08T03:16:30;30.58;;;10.77;;
78116;SDS011;69042;59.120;37.904;2024-03-08T03:18:56;28.48;;;11.70;;
78116;SDS011;69042;59.120;37.904;2024-03-08T03:21:24;34.78;;;12.77;;
78116;SDS011;69042;59.120;37.904;2024-03-08T03:23:54;30.00;;;12.13;;
78116;SDS011;69042;59.120;37.904;2024-03-08T03:26:20;35.08;;;13.48;;
78116;SDS011;69042;59.120;37.904;2024-03-08T03:28:47;44.58;;;17.42;;
78116;SDS011;69042;59.120;37.904;2024-03-08T03:31:13;62.75;;;21.17;;
78116;SDS011;69042;59.120;37.904;2024-03-08T03:33:40;77.57;;;23.40;;
78116;SDS011;69042;59.120;37.904;2024-03-08T03:36:06;108.80;;;32.42;;
78116;SDS011;69042;59.120;37.904;2024-03-08T03:38:35;120.60;;;33.03;;
78116;SDS011;69042;59.120;37.904;2024-03-08T03:41:01;112.18;;;31.73;;
78116;SDS011;69042;59.120;37.904;2024-03-08T03:43:32;71.85;;;25.25;;
78116;SDS011;69042;59.120;37.904;2024-03-08T03:45:58;119.13;;;33.28;;
78116;SDS011;69042;59.120;37.904;2024-03-08T03:48:24;86.63;;;26.23;;
78116;SDS011;69042;59.120;37.904;2024-03-08T03:50:50;74.65;;;21.77;;
78116;SDS011;69042;59.120;37.904;2024-03-08T03:53:16;86.03;;;26.23;;
78116;SDS011;69042;59.120;37.904;2024-03-08T03:55:42;95.38;;;29.17;;
78116;SDS011;69042;59.120;37.904;2024-03-08T03:58:09;48.00;;;15.55;;
78116;SDS011;69042;59.120;37.904;2024-03-08T04:00:38;89.25;;;24.77;;
78116;SDS011;69042;59.120;37.904;2024-03-08T04:03:04;40.80;;;15.77;;
78116;SDS011;69042;59.120;37.904;2024-03-08T04:05:31;56.60;;;17.17;;
78116;SDS011;69042;59.120;37.904;2024-03-08T04:07:57;37.85;;;12.02;;
78116;SDS011;69042;59.120;37.904;2024-03-08T04:10:23;43.85;;;14.05;;
78116;SDS011;69042;59.120;37.904;2024-03-08T04:12:50;48.10;;;16.50;;
78116;SDS011;69042;59.120;37.904;2024-03-08T04:15:16;36.90;;;13.95;;
78116;SDS011;69042;59.120;37.904;2024-03-08T04:17:42;62.92;;;19.00;;
78116;SDS011;69042;59.120;37.904;2024-03-08T04:20:08;64.03;;;20.13;;
78116;SDS011;69042;59.120;37.904;2024-03-08T04:22:36;84.03;;;26.48;;
78116;SDS011;69042;59.120;37.904;2024-03-08T04:25:03;90.85;;;25.90;;
78116;SDS011;69042;59.120;37.904;2024-03-08T04:27:29;111.22;;;34.88;;
78116;SDS011;69042;59.120;37.904;2024-03-08T04:29:58;77.05;;;28.65;;
78116;SDS011;69042;59.120;37.904;2024-03-08T04:32:25;64.43;;;21.58;;
78116;SDS011;69042;59.120;37.904;2024-03-08T04:34:51;47.97;;;16.08;;
78116;SDS011;69042;59.120;37.904;2024-03-08T04:37:17;55.50;;;15.90;;
78116;SDS011;69042;59.120;37.904;2024-03-08T04:39:47;55.53;;;18.77;;
78116;SDS011;69042;59.120;37.904;2024-03-08T04:42:14;40.42;;;14.15;;
78116;SDS011;69042;59.120;37.904;2024-03-08T04:44:41;60.65;;;21.02;;
78116;SDS011;69042;59.120;37.904;2024-03-08T04:47:07;62.35;;;19.95;;
78116;SDS011;69042;59.120;37.904;2024-03-08T04:49:34;61.42;;;19.95;;
78116;SDS011;69042;59.120;37.904;2024-03-08T04:52:01;23.08;;;8.82;;
78116;SDS011;69042;59.120;37.904;2024-03-08T04:54:30;40.25;;;13.68;;
78116;SDS011;69042;59.120;37.904;2024-03-08T04:56:57;39.38;;;11.63;;
78116;SDS011;69042;59.120;37.904;2024-03-08T04:59:23;36.00;;;12.10;;
78116;SDS011;69042;59.120;37.904;2024-03-08T05:01:49;56.65;;;17.23;;
78116;SDS011;69042;59.120;37.904;2024-03-08T05:04:17;63.13;;;19.50;;
78116;SDS011;69042;59.120;37.904;2024-03-08T05:06:43;48.70;;;17.13;;
78116;SDS011;69042;59.120;37.904;2024-03-08T05:09:09;60.90;;;17.98;;
78116;SDS011;69042;59.120;37.904;2024-03-08T05:11:42;105.78;;;25.08;;
78116;SDS011;69042;59.120;37.904;2024-03-08T05:14:12;69.43;;;19.52;;
78116;SDS011;69042;59.120;37.904;2024-03-08T05:16:45;37.53;;;12.70;;
78116;SDS011;69042;59.120;37.904;2024-03-08T05:19:15;29.52;;;9.98;;
78116;SDS011;69042;59.120;37.904;2024-03-08T05:21:45;27.77;;;9.30;;
78116;SDS011;69042;59.120;37.904;2024-03-08T05:24:13;45.45;;;14.35;;
78116;SDS011;69042;59.120;37.904;2024-03-08T05:26:41;81.75;;;26.95;;
78116;SDS011;69042;59.120;37.904;2024-03-08T05:29:08;47.58;;;16.48;;
78116;SDS011;69042;59.120;37.904;2024-03-08T05:31:51;62.20;;;19.50;;
78116;SDS011;69042;59.120;37.904;2024-03-08T05:34:18;67.30;;;17.73;;
78116;SDS011;69042;59.120;37.904;2024-03-08T05:36:47;31.65;;;10.20;;
78116;SDS011;69042;59.120;37.904;2024-03-08T05:39:16;46.47;;;15.00;;
78116;SDS011;69042;59.120;37.904;2024-03-08T05:41:43;46.05;;;15.25;;
78116;SDS011;69042;59.120;37.904;2024-03-08T05:44:10;23.73;;;9.13;;
78116;SDS011;69042;59.120;37.904;2024-03-08T05:46:37;23.25;;;9.00;;
78116;SDS011;69042;59.120;37.904;2024-03-08T05:49:03;29.20;;;9.45;;
78116;SDS011;69042;59.120;37.904;2024-03-08T05:51:31;27.05;;;9.15;;
78116;SDS011;69042;59.120;37.904;2024-03-08T05:56:29;25.88;;;9.73;;
78116;SDS011;69042;59.120;37.904;2024-03-08T05:58:56;29.60;;;9.15;;
78116;SDS011;69042;59.120;37.904;2024-03-08T06:01:27;42.85;;;13.82;;
78116;SDS011;69042;59.120;37.904;2024-03-08T06:03:54;31.88;;;12.18;;
78116;SDS011;69042;59.120;37.904;2024-03-08T06:06:25;27.00;;;9.05;;
78116;SDS011;69042;59.120;37.904;2024-03-08T06:08:52;40.17;;;14.63;;
78116;SDS011;69042;59.120;37.904;2024-03-08T06:11:19;36.88;;;13.20;;
78116;SDS011;69042;59.120;37.904;2024-03-08T06:13:46;33.97;;;12.25;;
78116;SDS011;69042;59.120;37.904;2024-03-08T06:16:12;41.22;;;14.07;;
78116;SDS011;69042;59.120;37.904;2024-03-08T06:18:38;19.95;;;7.10;;
78116;SDS011;69042;59.120;37.904;2024-03-08T06:21:05;50.80;;;15.75;;
78116;SDS011;69042;59.120;37.904;2024-03-08T06:23:32;56.33;;;18.73;;
78116;SDS011;69042;59.120;37.904;2024-03-08T06:25:59;52.90;;;17.27;;
78116;SDS011;69042;59.120;37.904;2024-03-08T06:28:25;67.05;;;21.35;;
78116;SDS011;69042;59.120;37.904;2024-03-08T06:30:51;52.60;;;19.63;;
78116;SDS011;69042;59.120;37.904;2024-03-08T06:33:18;66.18;;;23.90;;
78116;SDS011;69042;59.120;37.904;2024-03-08T06:35:44;75.20;;;22.15;;
78116;SDS011;69042;59.120;37.904;2024-03-08T06:38:11;64.53;;;21.13;;
78116;SDS011;69042;59.120;37.904;2024-03-08T06:40:37;55.70;;;17.95;;
78116;SDS011;69042;59.120;37.904;2024-03-08T06:43:04;73.93;;;22.92;;
78116;SDS011;69042;59.120;37.904;2024-03-08T06:45:31;64.97;;;19.90;;
78116;SDS011;69042;59.120;37.904;2024-03-08T06:47:58;41.60;;;15.07;;
78116;SDS011;69042;59.120;37.904;2024-03-08T06:50:24;42.00;;;12.82;;
78116;SDS011;69042;59.120;37.904;2024-03-08T06:52:50;29.70;;;10.27;;
78116;SDS011;69042;59.120;37.904;2024-03-08T06:55:22;40.00;;;15.35;;
78116;SDS011;69042;59.120;37.904;2024-03-08T06:57:48;38.35;;;14.13;;
78116;SDS011;69042;59.120;37.904;2024-03-08T07:00:14;24.60;;;9.80;;
78116;SDS011;69042;59.120;37.904;2024-03-08T07:02:44;31.90;;;10.18;;
78116;SDS011;69042;59.120;37.904;2024-03-08T07:05:19;19.73;;;6.10;;
78116;SDS011;69042;59.120;37.904;2024-03-08T07:07:45;30.73;;;10.23;;
78116;SDS011;69042;59.120;37.904;2024-03-08T07:10:14;19.70;;;6.72;;
78116;SDS011;69042;59.120;37.904;2024-03-08T07:12:41;19.88;;;6.38;;
78116;SDS011;69042;59.120;37.904;2024-03-08T07:15:08;18.75;;;6.55;;
78116;SDS011;69042;59.120;37.904;2024-03-08T07:17:39;27.00;;;9.43;;
78116;SDS011;69042;59.120;37.904;2024-03-08T07:20:06;19.02;;;6.22;;
78116;SDS011;69042;59.120;37.904;2024-03-08T07:22:38;21.00;;;7.03;;
78116;SDS011;69042;59.120;37.904;2024-03-08T07:25:05;26.08;;;10.52;;
78116;SDS011;69042;59.120;37.904;2024-03-08T07:27:50;22.77;;;7.85;;
78116;SDS011;69042;59.120;37.904;2024-03-08T07:30:21;48.47;;;18.92;;
78116;SDS011;69042;59.120;37.904;2024-03-08T07:33:07;34.88;;;14.10;;
78116;SDS011;69042;59.120;37.904;2024-03-08T07:35:33;43.25;;;15.48;;
78116;SDS011;69042;59.120;37.904;2024-03-08T07:38:03;31.85;;;11.80;;
78116;SDS011;69042;59.120;37.904;2024-03-08T07:40:31;31.48;;;11.13;;
78116;SDS011;69042;59.120;37.904;2024-03-08T07:43:00;14.55;;;5.70;;
78116;SDS011;69042;59.120;37.904;2024-03-08T07:45:27;27.90;;;8.95;;
78116;SDS011;69042;59.120;37.904;2024-03-08T07:47:54;21.58;;;8.27;;
78116;SDS011;69042;59.120;37.904;2024-03-08T07:50:22;22.15;;;7.20;;
78116;SDS011;69042;59.120;37.904;2024-03-08T07:52:48;12.38;;;5.28;;
78116;SDS011;69042;59.120;37.904;2024-03-08T07:55:17;18.67;;;8.02;;
78116;SDS011;69042;59.120;37.904;2024-03-08T07:57:44;15.95;;;6.13;;
78116;SDS011;69042;59.120;37.904;2024-03-08T08:00:10;14.93;;;5.93;;
78116;SDS011;69042;59.120;37.904;2024-03-08T08:02:38;14.73;;;7.35;;
78116;SDS011;69042;59.120;37.904;2024-03-08T08:05:05;18.02;;;6.68;;
78116;SDS011;69042;59.120;37.904;2024-03-08T08:07:31;32.75;;;11.95;;
78116;SDS011;69042;59.120;37.904;2024-03-08T08:09:57;48.90;;;11.68;;
78116;SDS011;69042;59.120;37.904;2024-03-08T08:12:23;22.02;;;7.53;;
78116;SDS011;69042;59.120;37.904;2024-03-08T08:14:50;15.90;;;5.57;;
78116;SDS011;69042;59.120;37.904;2024-03-08T08:17:16;12.98;;;4.32;;
78116;SDS011;69042;59.120;37.904;2024-03-08T08:19:43;8.75;;;3.63;;
78116;SDS011;69042;59.120;37.904;2024-03-08T08:22:09;7.50;;;2.72;;
78116;SDS011;69042;59.120;37.904;2024-03-08T08:24:37;9.13;;;2.60;;
78116;SDS011;69042;59.120;37.904;2024-03-08T08:27:03;6.07;;;1.92;;
78116;SDS011;69042;59.120;37.904;2024-03-08T08:29:30;5.13;;;1.83;;
78116;SDS011;69042;59.120;37.904;2024-03-08T08:31:59;4.65;;;1.45;;
78116;SDS011;69042;59.120;37.904;2024-03-08T08:34:25;4.50;;;1.70;;
78116;SDS011;69042;59.120;37.904;2024-03-08T08:36:52;7.07;;;2.35;;
78116;SDS011;69042;59.120;37.904;2024-03-08T08:39:19;3.50;;;1.05;;
78116;SDS011;69042;59.120;37.904;2024-03-08T08:41:45;3.97;;;1.13;;
78116;SDS011;69042;59.120;37.904;2024-03-08T08:44:11;3.92;;;1.45;;
78116;SDS011;69042;59.120;37.904;2024-03-08T08:46:38;4.75;;;1.17;;
78116;SDS011;69042;59.120;37.904;2024-03-08T08:49:05;7.70;;;2.03;;
78116;SDS011;69042;59.120;37.904;2024-03-08T08:51:32;3.08;;;1.15;;
78116;SDS011;69042;59.120;37.904;2024-03-08T08:53:59;5.45;;;1.40;;
78116;SDS011;69042;59.120;37.904;2024-03-08T08:56:25;4.47;;;1.10;;
78116;SDS011;69042;59.120;37.904;2024-03-08T08:58:52;8.10;;;2.38;;
78116;SDS011;69042;59.120;37.904;2024-03-08T09:01:21;3.78;;;1.30;;
78116;SDS011;69042;59.120;37.904;2024-03-08T09:03:47;5.78;;;2.00;;
78116;SDS011;69042;59.120;37.904;2024-03-08T09:06:13;4.43;;;1.65;;
78116;SDS011;69042;59.120;37.904;2024-03-08T09:08:39;4.85;;;1.10;;
78116;SDS011;69042;59.120;37.904;2024-03-08T09:11:06;4.00;;;1.10;;
78116;SDS011;69042;59.120;37.904;2024-03-08T09:13:32;19.17;;;2.10;;
78116;SDS011;69042;59.120;37.904;2024-03-08T09:15:59;4.40;;;1.20;;
78116;SDS011;69042;59.120;37.904;2024-03-08T09:18:26;2.85;;;0.90;;
78116;SDS011;69042;59.120;37.904;2024-03-08T09:20:52;2.80;;;1.13;;
78116;SDS011;69042;59.120;37.904;2024-03-08T09:23:19;3.53;;;1.20;;
78116;SDS011;69042;59.120;37.904;2024-03-08T09:25:46;3.83;;;1.42;;
78116;SDS011;69042;59.120;37.904;2024-03-08T09:28:12;4.10;;;1.15;;
78116;SDS011;69042;59.120;37.904;2024-03-08T09:30:39;4.35;;;1.13;;
78116;SDS011;69042;59.120;37.904;2024-03-08T09:33:05;5.45;;;1.40;;
78116;SDS011;69042;59.120;37.904;2024-03-08T09:35:32;7.30;;;2.13;;
78116;SDS011;69042;59.120;37.904;2024-03-08T09:37:59;3.50;;;1.35;;
78116;SDS011;69042;59.120;37.904;2024-03-08T09:40:25;4.47;;;1.55;;
78116;SDS011;69042;59.120;37.904;2024-03-08T09:42:53;5.78;;;1.50;;
78116;SDS011;69042;59.120;37.904;2024-03-08T09:45:21;7.07;;;2.35;;
78116;SDS011;69042;59.120;37.904;2024-03-08T09:47:50;3.20;;;1.10;;
78116;SDS011;69042;59.120;37.904;2024-03-08T09:50:17;2.55;;;1.00;;
78116;SDS011;69042;59.120;37.904;2024-03-08T09:52:45;1.50;;;0.73;;
78116;SDS011;69042;59.120;37.904;2024-03-08T09:55:13;5.07;;;1.58;;
78116;SDS011;69042;59.120;37.904;2024-03-08T09:57:39;2.58;;;0.90;;
78116;SDS011;69042;59.120;37.904;2024-03-08T10:00:06;2.67;;;1.00;;
78116;SDS011;69042;59.120;37.904;2024-03-08T10:02:49;2.70;;;0.95;;
78116;SDS011;69042;59.120;37.904;2024-03-08T10:05:19;3.17;;;1.05;;
78116;SDS011;69042;59.120;37.904;2024-03-08T10:07:47;5.53;;;1.83;;
78116;SDS011;69042;59.120;37.904;2024-03-08T10:10:13;5.85;;;1.88;;
78116;SDS011;69042;59.120;37.904;2024-03-08T10:12:40;3.53;;;0.98;;
78116;SDS011;69042;59.120;37.904;2024-03-08T10:15:07;5.07;;;1.92;;
78116;SDS011;69042;59.120;37.904;2024-03-08T10:17:37;3.70;;;1.15;;
78116;SDS011;69042;59.120;37.904;2024-03-08T10:20:15;3.90;;;1.13;;
78116;SDS011;69042;59.120;37.904;2024-03-08T10:22:43;3.30;;;1.27;;
78116;SDS011;69042;59.120;37.904;2024-03-08T10:25:11;4.32;;;1.67;;
78116;SDS011;69042;59.120;37.904;2024-03-08T10:27:40;2.63;;;0.93;;
78116;SDS011;69042;59.120;37.904;2024-03-08T10:30:10;2.65;;;0.93;;
78116;SDS011;69042;59.120;37.904;2024-03-08T10:32:40;3.05;;;1.10;;
78116;SDS011;69042;59.120;37.904;2024-03-08T10:35:10;2.95;;;0.95;;
78116;SDS011;69042;59.120;37.904;2024-03-08T10:37:48;3.70;;;1.30;;
78116;SDS011;69042;59.120;37.904;2024-03-08T10:40:19;5.20;;;1.83;;
78116;SDS011;69042;59.120;37.904;2024-03-08T10:43:23;6.97;;;1.50;;
78116;SDS011;69042;59.120;37.904;2024-03-08T10:45:45;7.00;;;1.40;;
78116;SDS011;69042;59.120;37.904;2024-03-08T10:48:32;5.90;;;1.48;;
78116;SDS011;69042;59.120;37.904;2024-03-08T10:51:08;4.60;;;1.23;;
78116;SDS011;69042;59.120;37.904;2024-03-08T10:56:07;7.38;;;1.83;;
78116;SDS011;69042;59.120;37.904;2024-03-08T10:58:35;5.88;;;2.30;;
78116;SDS011;69042;59.120;37.904;2024-03-08T11:01:03;6.55;;;1.88;;
78116;SDS011;69042;59.120;37.904;2024-03-08T11:06:16;4.50;;;1.42;;
78116;SDS011;69042;59.120;37.904;2024-03-08T11:08:45;2.92;;;0.93;;
78116;SDS011;69042;59.120;37.904;2024-03-08T11:11:25;4.50;;;1.42;;
78116;SDS011;69042;59.120;37.904;2024-03-08T11:13:53;2.42;;;0.82;;
78116;SDS011;69042;59.120;37.904;2024-03-08T11:18:53;3.28;;;1.17;;
78116;SDS011;69042;59.120;37.904;2024-03-08T11:21:20;2.97;;;1.13;;
78116;SDS011;69042;59.120;37.904;2024-03-08T11:24:06;5.38;;;1.10;;
78116;SDS011;69042;59.120;37.904;2024-03-08T11:26:33;4.55;;;1.20;;
78116;SDS011;69042;59.120;37.904;2024-03-08T11:32:12;2.70;;;0.80;;
78116;SDS011;69042;59.120;37.904;2024-03-08T11:34:43;2.90;;;0.95;;
78116;SDS011;69042;59.120;37.904;2024-03-08T11:37:13;8.35;;;1.50;;
78116;SDS011;69042;59.120;37.904;2024-03-08T11:39:48;2.45;;;0.77;;
78116;SDS011;69042;59.120;37.904;2024-03-08T11:42:15;2.40;;;0.70;;
78116;SDS011;69042;59.120;37.904;2024-03-08T11:44:45;3.60;;;1.25;;
78116;SDS011;69042;59.120;37.904;2024-03-08T11:47:14;4.07;;;1.00;;
78116;SDS011;69042;59.120;37.904;2024-03-08T11:52:11;5.07;;;1.23;;
78116;SDS011;69042;59.120;37.904;2024-03-08T11:55:01;3.42;;;1.17;;
78116;SDS011;69042;59.120;37.904;2024-03-08T11:57:26;3.90;;;1.10;;
78116;SDS011;69042;59.120;37.904;2024-03-08T11:59:54;4.78;;;1.10;;
78116;SDS011;69042;59.120;37.904;2024-03-08T12:02:22;6.35;;;1.10;;
78116;SDS011;69042;59.120;37.904;2024-03-08T12:04:58;7.55;;;2.03;;
78116;SDS011;69042;59.120;37.904;2024-03-08T12:07:25;12.75;;;3.45;;
78116;SDS011;69042;59.120;37.904;2024-03-08T12:12:44;12.13;;;3.85;;
78116;SDS011;69042;59.120;37.904;2024-03-08T12:15:16;13.90;;;4.32;;
78116;SDS011;69042;59.120;37.904;2024-03-08T12:17:44;5.82;;;2.10;;
78116;SDS011;69042;59.120;37.904;2024-03-08T12:20:17;8.63;;;3.33;;
78116;SDS011;69042;59.120;37.904;2024-03-08T12:22:47;8.65;;;3.45;;
78116;SDS011;69042;59.120;37.904;2024-03-08T12:25:14;12.52;;;4.10;;
78116;SDS011;69042;59.120;37.904;2024-03-08T12:27:42;7.90;;;2.15;;
78116;SDS011;69042;59.120;37.904;2024-03-08T12:30:18;3.15;;;0.90;;
78116;SDS011;69042;59.120;37.904;2024-03-08T12:32:53;5.50;;;1.70;;
78116;SDS011;69042;59.120;37.904;2024-03-08T12:35:24;5.72;;;1.75;;
78116;SDS011;69042;59.120;37.904;2024-03-08T12:37:58;5.72;;;0.98;;
78116;SDS011;69042;59.120;37.904;2024-03-08T12:40:26;3.00;;;0.95;;
78116;SDS011;69042;59.120;37.904;2024-03-08T12:42:53;4.50;;;1.45;;
78116;SDS011;69042;59.120;37.904;2024-03-08T12:45:21;3.50;;;1.08;;
78116;SDS011;69042;59.120;37.904;2024-03-08T12:47:58;2.47;;;0.80;;
78116;SDS011;69042;59.120;37.904;2024-03-08T12:50:25;2.63;;;0.90;;
78116;SDS011;69042;59.120;37.904;2024-03-08T12:52:51;2.10;;;0.70;;
78116;SDS011;69042;59.120;37.904;2024-03-08T12:55:21;3.80;;;0.90;;
78116;SDS011;69042;59.120;37.904;2024-03-08T12:57:47;2.17;;;0.80;;
78116;SDS011;69042;59.120;37.904;2024-03-08T13:00:14;2.13;;;0.60;;
78116;SDS011;69042;59.120;37.904;2024-03-08T13:02:49;3.50;;;1.10;;
78116;SDS011;69042;59.120;37.904;2024-03-08T13:05:17;2.33;;;0.95;;
78116;SDS011;69042;59.120;37.904;2024-03-08T13:07:43;3.28;;;0.80;;
78116;SDS011;69042;59.120;37.904;2024-03-08T13:10:15;4.90;;;1.60;;
78116;SDS011;69042;59.120;37.904;2024-03-08T13:12:42;4.38;;;1.35;;
78116;SDS011;69042;59.120;37.904;2024-03-08T13:15:09;5.20;;;1.30;;
78116;SDS011;69042;59.120;37.904;2024-03-08T13:17:49;4.43;;;1.27;;
78116;SDS011;69042;59.120;37.904;2024-03-08T13:20:16;4.50;;;1.23;;
78116;SDS011;69042;59.120;37.904;2024-03-08T13:22:45;5.22;;;1.10;;
78116;SDS011;69042;59.120;37.904;2024-03-08T13:25:12;2.58;;;0.93;;
78116;SDS011;69042;59.120;37.904;2024-03-08T13:27:40;2.80;;;0.90;;
78116;SDS011;69042;59.120;37.904;2024-03-08T13:30:08;2.55;;;0.98;;
78116;SDS011;69042;59.120;37.904;2024-03-08T13:32:40;1.75;;;0.70;;
78116;SDS011;69042;59.120;37.904;2024-03-08T13:35:09;2.50;;;0.80;;
78116;SDS011;69042;59.120;37.904;2024-03-08T13:37:40;5.07;;;1.55;;
78116;SDS011;69042;59.120;37.904;2024-03-08T13:40:07;4.30;;;1.75;;
78116;SDS011;69042;59.120;37.904;2024-03-08T13:42:37;3.10;;;1.10;;
78116;SDS011;69042;59.120;37.904;2024-03-08T13:45:05;3.65;;;1.15;;
78116;SDS011;69042;59.120;37.904;2024-03-08T13:47:33;5.63;;;1.48;;
78116;SDS011;69042;59.120;37.904;2024-03-08T13:49:59;3.22;;;1.02;;
78116;SDS011;69042;59.120;37.904;2024-03-08T13:52:26;7.10;;;1.20;;
78116;SDS011;69042;59.120;37.904;2024-03-08T13:54:55;3.85;;;1.00;;
78116;SDS011;69042;59.120;37.904;2024-03-08T13:57:21;3.03;;;0.82;;
78116;SDS011;69042;59.120;37.904;2024-03-08T13:59:52;3.15;;;1.02;;
78116;SDS011;69042;59.120;37.904;2024-03-08T14:02:18;3.80;;;1.13;;
78116;SDS011;69042;59.120;37.904;2024-03-08T14:04:44;5.60;;;1.50;;
78116;SDS011;69042;59.120;37.904;2024-03-08T14:07:10;4.35;;;1.23;;
78116;SDS011;69042;59.120;37.904;2024-03-08T14:09:36;3.60;;;1.20;;
78116;SDS011;69042;59.120;37.904;2024-03-08T14:12:05;3.95;;;1.30;;
78116;SDS011;69042;59.120;37.904;2024-03-08T14:14:34;5.53;;;1.80;;
78116;SDS011;69042;59.120;37.904;2024-03-08T14:17:03;3.42;;;1.20;;
78116;SDS011;69042;59.120;37.904;2024-03-08T14:19:29;3.63;;;1.27;;
78116;SDS011;69042;59.120;37.904;2024-03-08T14:22:01;3.30;;;1.00;;
78116;SDS011;69042;59.120;37.904;2024-03-08T14:24:30;2.05;;;0.90;;
78116;SDS011;69042;59.120;37.904;2024-03-08T14:26:57;2.92;;;0.90;;
78116;SDS011;69042;59.120;37.904;2024-03-08T14:29:27;3.28;;;1.00;;
78116;SDS011;69042;59.120;37.904;2024-03-08T14:31:56;3.78;;;1.00;;
78116;SDS011;69042;59.120;37.904;2024-03-08T14:34:25;3.88;;;1.20;;
78116;SDS011;69042;59.120;37.904;2024-03-08T14:36:55;3.95;;;1.00;;
78116;SDS011;69042;59.120;37.904;2024-03-08T14:39:21;3.17;;;1.15;;
78116;SDS011;69042;59.120;37.904;2024-03-08T14:41:52;3.85;;;0.95;;
78116;SDS011;69042;59.120;37.904;2024-03-08T14:44:22;4.10;;;1.15;;
78116;SDS011;69042;59.120;37.904;2024-03-08T14:46:52;4.07;;;1.25;;